Time;durP1;ratioP1;P1;durP2;ratioP2;P2;SDS_P1;SDS_P2;PMS_P1;PMS_P2;Temp;Humidity;BMP_temperature;BMP_pressure;BME280_temperature;BME280_humidity;BME280_pressure;Samples;Min_cycle;Max_cycle;Signal;HPM_P1;HPM_P2
2021/03/28 00:00:26;;;;;;;9.97;2.80;;;;;;;;;;5033115;28;20232;-77
2021/03/28 00:02:53;;;;;;;13.83;3.30;;;;;;;;;;5033198;28;20180;-76
2021/03/28 00:05:22;;;;;;;12.50;2.80;;;;;;;;;;5049772;28;20298;-76
2021/03/28 00:07:49;;;;;;;9.83;3.03;;;;;;;;;;5033956;28;20175;-77
2021/03/28 00:10:44;;;;;;;11.87;3.17;;;;;;;;;;5049560;28;20217;-77
2021/03/28 00:13:12;;;;;;;10.83;2.87;;;;;;;;;;5020970;28;20195;-75
2021/03/28 00:15:39;;;;;;;11.17;3.43;;;;;;;;;;5032533;28;20277;-74
2021/03/28 00:18:24;;;;;;;12.90;3.40;;;;;;;;;;5032912;28;20175;-74
2021/03/28 00:20:51;;;;;;;13.67;3.60;;;;;;;;;;5033974;28;20184;-74
2021/03/28 00:23:19;;;;;;;8.20;3.10;;;;;;;;;;5033296;28;20212;-74
2021/03/28 00:25:45;;;;;;;12.77;3.67;;;;;;;;;;5049641;28;20537;-75
2021/03/28 00:28:30;;;;;;;9.37;3.00;;;;;;;;;;5033729;28;20180;-75
2021/03/28 00:31:16;;;;;;;9.40;3.27;;;;;;;;;;5033770;28;20662;-74
2021/03/28 00:33:42;;;;;;;6.93;2.83;;;;;;;;;;5033265;28;20201;-74
2021/03/28 00:36:09;;;;;;;10.33;3.20;;;;;;;;;;5032367;28;20519;-74
2021/03/28 00:38:38;;;;;;;9.50;3.23;;;;;;;;;;5032505;28;20643;-74
2021/03/28 00:41:19;;;;;;;11.70;3.10;;;;;;;;;;5033509;28;20188;-74
2021/03/28 00:43:47;;;;;;;10.20;2.90;;;;;;;;;;5032044;28;20580;-74
2021/03/28 00:46:23;;;;;;;9.87;3.03;;;;;;;;;;5048854;28;20648;-74
2021/03/28 00:48:49;;;;;;;9.40;2.70;;;;;;;;;;5048589;28;20745;-74
2021/03/28 00:51:20;;;;;;;13.00;3.00;;;;;;;;;;5048555;28;20192;-74
2021/03/28 00:53:47;;;;;;;8.73;3.20;;;;;;;;;;5048641;28;20293;-74
2021/03/28 00:56:14;;;;;;;9.73;3.07;;;;;;;;;;5048637;28;20461;-74
2021/03/28 00:59:00;;;;;;;10.37;2.87;;;;;;;;;;5048348;28;20189;-74
2021/03/28 01:01:28;;;;;;;10.20;3.00;;;;;;;;;;5031386;28;20203;-74
2021/03/28 01:04:06;;;;;;;9.00;3.10;;;;;;;;;;5031573;28;20205;-73
2021/03/28 01:06:50;;;;;;;5.77;2.63;;;;;;;;;;5031574;28;20650;-74
2021/03/28 01:09:18;;;;;;;11.27;2.83;;;;;;;;;;5032324;28;20255;-74
2021/03/28 01:11:59;;;;;;;9.67;2.83;;;;;;;;;;5031608;28;20180;-74
2021/03/28 01:14:31;;;;;;;7.50;2.80;;;;;;;;;;5048204;28;20205;-75
2021/03/28 01:16:57;;;;;;;12.93;3.40;;;;;;;;;;5032893;28;20181;-74
2021/03/28 01:19:29;;;;;;;12.30;3.20;;;;;;;;;;5031014;28;20205;-74
2021/03/28 01:21:55;;;;;;;11.87;2.60;;;;;;;;;;5032598;28;20213;-74
2021/03/28 01:24:25;;;;;;;9.27;3.20;;;;;;;;;;5031247;28;20710;-74
2021/03/28 01:27:00;;;;;;;10.00;3.20;;;;;;;;;;5047545;28;20296;-74
2021/03/28 01:29:46;;;;;;;8.93;3.03;;;;;;;;;;5032392;28;20604;-74
2021/03/28 01:32:22;;;;;;;12.30;3.10;;;;;;;;;;5021381;28;20275;-74
2021/03/28 01:34:52;;;;;;;11.13;3.03;;;;;;;;;;5031058;28;20657;-75
2021/03/28 01:37:23;;;;;;;6.47;2.83;;;;;;;;;;5030925;28;20174;-74
2021/03/28 01:39:51;;;;;;;9.13;2.70;;;;;;;;;;5030850;28;20211;-74
2021/03/28 01:42:27;;;;;;;13.53;3.20;;;;;;;;;;5030566;28;20682;-74
2021/03/28 01:44:54;;;;;;;8.00;2.80;;;;;;;;;;5032081;28;20773;-74
2021/03/28 01:47:20;;;;;;;6.70;2.93;;;;;;;;;;5047716;28;20573;-75
2021/03/28 01:50:04;;;;;;;9.83;2.93;;;;;;;;;;5030748;28;20208;-74
2021/03/28 01:52:30;;;;;;;11.00;3.10;;;;;;;;;;5031964;28;20172;-74
2021/03/28 01:54:59;;;;;;;9.00;3.03;;;;;;;;;;5030817;28;20228;-74
2021/03/28 01:57:37;;;;;;;11.93;3.10;;;;;;;;;;5031941;28;20198;-74
2021/03/28 02:00:06;;;;;;;11.20;2.90;;;;;;;;;;5030754;28;20190;-75
2021/03/28 02:02:39;;;;;;;11.33;3.10;;;;;;;;;;5031920;28;20182;-75
2021/03/28 02:05:22;;;;;;;7.47;2.70;;;;;;;;;;5030588;28;20226;-74
2021/03/28 02:08:08;;;;;;;7.93;2.97;;;;;;;;;;5030663;28;20178;-74
2021/03/28 02:10:52;;;;;;;9.37;2.60;;;;;;;;;;5030459;28;20220;-75
2021/03/28 02:13:20;;;;;;;8.43;3.07;;;;;;;;;;5031330;28;20174;-74
2021/03/28 02:15:47;;;;;;;9.90;3.33;;;;;;;;;;5030691;28;20553;-74
2021/03/28 02:18:22;;;;;;;10.53;3.23;;;;;;;;;;5030415;28;20178;-74
2021/03/28 02:20:50;;;;;;;7.40;2.83;;;;;;;;;;5031914;28;20217;-74
2021/03/28 02:23:22;;;;;;;7.20;2.80;;;;;;;;;;5030557;28;20186;-74
2021/03/28 02:25:50;;;;;;;12.93;3.40;;;;;;;;;;5031758;28;20183;-74
2021/03/28 02:28:28;;;;;;;8.50;3.17;;;;;;;;;;5031073;28;20172;-74
2021/03/28 02:30:56;;;;;;;9.53;3.03;;;;;;;;;;5030193;28;20229;-74
2021/03/28 02:33:25;;;;;;;11.10;3.23;;;;;;;;;;5030172;28;20555;-74
2021/03/28 02:36:15;;;;;;;8.87;2.60;;;;;;;;;;5030292;28;20172;-74
2021/03/28 02:38:48;;;;;;;8.43;3.00;;;;;;;;;;5046599;28;20178;-74
2021/03/28 02:41:20;;;;;;;12.10;3.43;;;;;;;;;;5030249;28;20238;-74
2021/03/28 02:43:47;;;;;;;10.93;2.97;;;;;;;;;;5046557;28;20219;-74
2021/03/28 02:46:16;;;;;;;6.57;3.10;;;;;;;;;;5070980;23;20286;-77
2021/03/28 02:48:47;;;;;;;10.13;2.87;;;;;;;;;;5042723;28;20173;-77
2021/03/28 02:51:29;;;;;;;10.50;3.03;;;;;;;;;;5021229;28;20560;-77
2021/03/28 02:54:03;;;;;;;12.13;3.20;;;;;;;;;;5038563;28;20170;-80
2021/03/28 02:56:32;;;;;;;8.97;2.93;;;;;;;;;;5055219;28;20211;-80
2021/03/28 02:59:17;;;;;;;9.83;3.27;;;;;;;;;;5066546;28;20201;-80
2021/03/28 03:01:58;;;;;;;7.87;2.73;;;;;;;;;;5069688;28;20185;-80
2021/03/28 03:04:24;;;;;;;12.63;3.43;;;;;;;;;;5075036;28;20562;-80
2021/03/28 03:07:06;;;;;;;9.23;2.87;;;;;;;;;;5075517;28;20186;-79
2021/03/28 03:09:51;;;;;;;12.37;3.10;;;;;;;;;;5057859;28;20779;-79
2021/03/28 03:12:19;;;;;;;11.07;3.03;;;;;;;;;;5076757;28;20177;-80
2021/03/28 03:14:54;;;;;;;10.03;3.67;;;;;;;;;;5076358;28;20193;-80
2021/03/28 03:17:39;;;;;;;9.60;3.13;;;;;;;;;;5076226;28;20205;-80
2021/03/28 03:20:26;;;;;;;10.43;2.97;;;;;;;;;;5074822;28;20182;-80
2021/03/28 03:22:55;;;;;;;10.37;3.50;;;;;;;;;;5074328;28;20670;-80
2021/03/28 03:25:31;;;;;;;9.10;3.20;;;;;;;;;;5074177;28;20200;-80
2021/03/28 03:28:16;;;;;;;7.50;2.83;;;;;;;;;;5066184;28;20257;-80
2021/03/28 03:30:42;;;;;;;11.70;2.93;;;;;;;;;;5074691;28;20208;-79
2021/03/28 03:33:17;;;;;;;11.67;3.47;;;;;;;;;;5076820;28;20183;-80
2021/03/28 03:35:44;;;;;;;12.17;3.17;;;;;;;;;;5077749;28;20200;-79
2021/03/28 03:38:13;;;;;;;8.63;3.27;;;;;;;;;;5059329;28;20182;-81
2021/03/28 03:40:54;;;;;;;10.60;3.53;;;;;;;;;;5075298;28;20181;-81
2021/03/28 03:43:34;;;;;;;9.90;3.10;;;;;;;;;;5058301;28;20235;-80
2021/03/28 03:46:28;;;;;;;11.23;3.10;;;;;;;;;;5074788;28;20215;-80
2021/03/28 03:49:07;;;;;;;8.00;2.83;;;;;;;;;;5037922;28;20623;-80
2021/03/28 03:51:52;;;;;;;11.00;3.20;;;;;;;;;;5073931;28;20177;-80
2021/03/28 03:54:28;;;;;;;8.60;3.37;;;;;;;;;;5075557;28;20180;-80
2021/03/28 03:56:54;;;;;;;9.33;3.33;;;;;;;;;;5073863;28;20527;-77
2021/03/28 03:59:29;;;;;;;13.30;3.63;;;;;;;;;;5072996;28;20186;-78
2021/03/28 04:02:01;;;;;;;13.57;3.80;;;;;;;;;;5074029;28;20208;-81
2021/03/28 04:04:47;;;;;;;10.83;3.27;;;;;;;;;;5073657;28;20206;-80
2021/03/28 04:07:17;;;;;;;6.27;3.17;;;;;;;;;;5057916;28;20539;-79
2021/03/28 04:09:48;;;;;;;6.83;2.97;;;;;;;;;;5073957;28;20338;-80
2021/03/28 04:12:18;;;;;;;8.03;2.80;;;;;;;;;;5057150;28;20177;-79
2021/03/28 04:15:11;;;;;;;12.40;3.53;;;;;;;;;;5054310;28;20210;-80
2021/03/28 04:17:39;;;;;;;8.43;3.20;;;;;;;;;;5066693;28;20188;-80
2021/03/28 04:20:11;;;;;;;9.10;2.77;;;;;;;;;;5057117;28;20189;-77
2021/03/28 04:22:48;;;;;;;10.10;3.03;;;;;;;;;;5073451;28;20206;-80
2021/03/28 04:25:17;;;;;;;12.33;2.93;;;;;;;;;;5056654;28;20315;-78
2021/03/28 04:27:43;;;;;;;10.13;3.40;;;;;;;;;;5072436;28;20180;-78
2021/03/28 04:30:28;;;;;;;10.47;3.10;;;;;;;;;;5073473;28;20212;-78
2021/03/28 04:32:58;;;;;;;9.70;2.63;;;;;;;;;;5073144;28;20260;-77
2021/03/28 04:35:42;;;;;;;11.87;3.20;;;;;;;;;;5072254;28;20193;-77
2021/03/28 04:38:27;;;;;;;10.77;3.03;;;;;;;;;;5073468;28;20255;-81
2021/03/28 04:40:56;;;;;;;10.30;3.30;;;;;;;;;;5072453;28;20234;-81
2021/03/28 04:43:22;;;;;;;10.90;3.13;;;;;;;;;;5071838;28;20258;-81
2021/03/28 04:46:07;;;;;;;5.80;2.60;;;;;;;;;;5072271;28;20692;-78
2021/03/28 04:48:56;;;;;;;9.10;2.30;;;;;;;;;;5055813;28;20237;-78
2021/03/28 04:51:42;;;;;;;12.53;3.07;;;;;;;;;;5055752;28;20185;-81
2021/03/28 04:54:17;;;;;;;8.70;2.70;;;;;;;;;;5073250;28;20649;-81
2021/03/28 04:56:50;;;;;;;16.57;3.20;;;;;;;;;;5073118;28;20231;-81
2021/03/28 04:59:25;;;;;;;8.60;2.90;;;;;;;;;;5071778;28;20181;-79
2021/03/28 05:02:06;;;;;;;10.43;2.97;;;;;;;;;;5073305;28;20781;-78
2021/03/28 05:04:35;;;;;;;9.87;3.17;;;;;;;;;;5055343;28;20296;-79
2021/03/28 05:07:20;;;;;;;12.77;2.90;;;;;;;;;;5071404;28;20638;-79
2021/03/28 05:10:03;;;;;;;12.47;3.30;;;;;;;;;;5071126;28;20296;-81
2021/03/28 05:12:47;;;;;;;16.83;3.47;;;;;;;;;;5071895;28;20188;-81
2021/03/28 05:15:20;;;;;;;9.83;3.03;;;;;;;;;;5071703;28;20209;-79
2021/03/28 05:17:46;;;;;;;7.53;2.63;;;;;;;;;;5073030;28;20177;-82
2021/03/28 05:20:17;;;;;;;11.23;3.10;;;;;;;;;;5072317;28;20269;-81
2021/03/28 05:22:43;;;;;;;10.70;3.00;;;;;;;;;;5055016;28;20185;-82
2021/03/28 05:25:15;;;;;;;8.83;2.63;;;;;;;;;;5071355;28;20681;-80
2021/03/28 05:27:41;;;;;;;8.40;3.23;;;;;;;;;;5071421;28;20650;-81
2021/03/28 05:30:16;;;;;;;9.80;2.93;;;;;;;;;;5071012;28;20243;-82
2021/03/28 05:32:45;;;;;;;11.97;3.00;;;;;;;;;;5071390;28;20263;-81
2021/03/28 05:35:19;;;;;;;12.73;3.10;;;;;;;;;;5071094;28;20692;-82
2021/03/28 05:37:48;;;;;;;10.93;3.27;;;;;;;;;;5054637;28;20276;-81
2021/03/28 05:40:34;;;;;;;11.20;2.90;;;;;;;;;;5072452;28;20181;-80
2021/03/28 05:43:09;;;;;;;12.70;3.70;;;;;;;;;;5054560;28;20619;-81
2021/03/28 05:45:42;;;;;;;8.03;3.10;;;;;;;;;;5072583;28;20713;-81
2021/03/28 05:48:27;;;;;;;9.60;2.93;;;;;;;;;;5054271;28;20184;-82
2021/03/28 05:50:53;;;;;;;9.03;2.83;;;;;;;;;;5072468;28;20256;-78
2021/03/28 05:53:29;;;;;;;9.77;3.00;;;;;;;;;;5071124;28;20628;-80
2021/03/28 05:56:10;;;;;;;12.73;2.70;;;;;;;;;;5054574;28;20707;-81
2021/03/28 05:58:56;;;;;;;13.07;2.77;;;;;;;;;;5037031;28;20204;-82
2021/03/28 06:01:41;;;;;;;8.70;3.03;;;;;;;;;;5021450;28;20189;-79
2021/03/28 06:04:25;;;;;;;7.17;3.07;;;;;;;;;;5052146;28;20635;-82
2021/03/28 06:06:54;;;;;;;14.43;3.23;;;;;;;;;;5052116;28;20192;-78
2021/03/28 06:09:39;;;;;;;10.03;2.60;;;;;;;;;;5050528;28;20725;-78
2021/03/28 06:12:14;;;;;;;9.97;2.27;;;;;;;;;;5050811;28;20182;-82
2021/03/28 06:14:43;;;;;;;7.93;2.37;;;;;;;;;;5050818;28;20198;-79
2021/03/28 06:17:28;;;;;;;8.70;3.13;;;;;;;;;;5050575;28;20210;-79
2021/03/28 06:19:57;;;;;;;9.57;2.77;;;;;;;;;;5050317;28;20196;-81
2021/03/28 06:22:23;;;;;;;8.63;2.50;;;;;;;;;;5054463;28;20189;-80
2021/03/28 06:24:52;;;;;;;7.87;2.20;;;;;;;;;;5069316;28;20207;-80
2021/03/28 06:27:36;;;;;;;7.37;2.40;;;;;;;;;;5069785;28;20181;-81
2021/03/28 06:30:22;;;;;;;7.93;2.47;;;;;;;;;;5069858;28;20296;-81
2021/03/28 06:32:57;;;;;;;8.33;2.07;;;;;;;;;;5070998;28;20180;-79
2021/03/28 06:35:26;;;;;;;9.83;2.50;;;;;;;;;;5071726;28;20204;-80
2021/03/28 06:37:52;;;;;;;6.93;2.20;;;;;;;;;;5072795;28;20662;-81
2021/03/28 06:40:42;;;;;;;10.40;2.10;;;;;;;;;;5070899;28;20208;-81
2021/03/28 06:43:11;;;;;;;9.40;2.10;;;;;;;;;;5070973;28;20208;-80
2021/03/28 06:45:40;;;;;;;9.60;2.40;;;;;;;;;;5070449;28;20300;-81
2021/03/28 06:48:15;;;;;;;7.33;2.20;;;;;;;;;;5072268;28;20182;-81
2021/03/28 06:50:47;;;;;;;7.70;1.90;;;;;;;;;;5053806;28;20254;-80
2021/03/28 06:53:18;;;;;;;7.00;2.13;;;;;;;;;;5070706;28;20178;-81
2021/03/28 06:55:44;;;;;;;7.70;2.20;;;;;;;;;;5054457;28;20227;-81
2021/03/28 06:58:29;;;;;;;10.17;2.13;;;;;;;;;;5054229;28;20277;-81
2021/03/28 07:00:58;;;;;;;9.73;2.43;;;;;;;;;;5070828;28;20234;-81
2021/03/28 07:03:33;;;;;;;8.17;2.17;;;;;;;;;;5071661;28;20181;-81
2021/03/28 07:06:02;;;;;;;5.43;2.27;;;;;;;;;;5071815;28;20208;-81
2021/03/28 07:08:38;;;;;;;6.23;1.97;;;;;;;;;;5056423;28;20208;-81
2021/03/28 07:11:23;;;;;;;6.40;1.80;;;;;;;;;;5070734;28;20214;-81
2021/03/28 07:14:07;;;;;;;5.10;2.17;;;;;;;;;;5071689;28;20174;-82
2021/03/28 07:16:54;;;;;;;6.37;2.07;;;;;;;;;;5070531;28;20183;-81
2021/03/28 07:19:26;;;;;;;7.30;2.07;;;;;;;;;;5053713;28;20280;-79
2021/03/28 07:21:52;;;;;;;8.60;2.57;;;;;;;;;;5070430;28;20274;-79
2021/03/28 07:24:37;;;;;;;8.47;2.27;;;;;;;;;;5072098;28;20191;-81
2021/03/28 07:27:06;;;;;;;7.73;2.60;;;;;;;;;;5070492;28;20185;-80
2021/03/28 07:29:32;;;;;;;8.33;2.53;;;;;;;;;;5070183;28;20209;-80
2021/03/28 07:32:16;;;;;;;7.87;2.20;;;;;;;;;;5072858;28;20181;-80
2021/03/28 07:35:01;;;;;;;6.90;2.50;;;;;;;;;;5074295;28;20197;-81
2021/03/28 07:37:37;;;;;;;6.67;2.33;;;;;;;;;;5073889;28;20269;-78
2021/03/28 07:40:10;;;;;;;7.40;2.40;;;;;;;;;;5073606;28;20219;-78
2021/03/28 07:42:42;;;;;;;8.97;2.50;;;;;;;;;;5075137;28;20178;-80
2021/03/28 07:45:08;;;;;;;12.40;2.67;;;;;;;;;;5073811;28;20216;-80
2021/03/28 07:48:12;;;;;;;7.23;2.10;;;;;;;;;;5072110;28;20182;-80
2021/03/28 07:50:50;;;;;;;11.27;2.60;;;;;;;;;;4977805;28;20685;-81
2021/03/28 07:53:35;;;;;;;6.73;2.00;;;;;;;;;;4961805;28;20268;-78
2021/03/28 07:56:16;;;;;;;9.40;2.13;;;;;;;;;;5035474;28;20590;-75
2021/03/28 07:58:51;;;;;;;9.57;2.70;;;;;;;;;;5074312;28;20184;-78
2021/03/28 08:01:17;;;;;;;7.63;2.20;;;;;;;;;;5074389;28;20200;-76
2021/03/28 08:03:46;;;;;;;9.03;2.37;;;;;;;;;;5073547;28;20639;-76
2021/03/28 08:06:22;;;;;;;8.67;2.00;;;;;;;;;;5073092;28;20295;-77
2021/03/28 08:08:50;;;;;;;7.10;2.07;;;;;;;;;;5072901;28;20177;-77
2021/03/28 08:11:28;;;;;;;7.83;1.93;;;;;;;;;;5071051;28;20545;-77
2021/03/28 08:14:13;;;;;;;8.13;2.33;;;;;;;;;;5064425;28;20174;-79
2021/03/28 08:16:40;;;;;;;8.10;2.20;;;;;;;;;;5069181;28;20230;-78
2021/03/28 08:19:18;;;;;;;10.20;2.47;;;;;;;;;;5063893;28;20190;-78
2021/03/28 08:21:53;;;;;;;9.23;2.10;;;;;;;;;;5065273;28;20259;-79
2021/03/28 08:24:19;;;;;;;14.33;2.50;;;;;;;;;;5064289;28;20173;-79
2021/03/28 08:27:04;;;;;;;8.30;2.40;;;;;;;;;;5062767;28;20204;-78
2021/03/28 08:29:44;;;;;;;8.17;2.43;;;;;;;;;;5064729;28;20213;-78
2021/03/28 08:32:13;;;;;;;7.70;2.17;;;;;;;;;;5066636;28;20238;-78
2021/03/28 08:34:39;;;;;;;8.27;2.50;;;;;;;;;;5063927;28;20198;-79
2021/03/28 08:37:05;;;;;;;7.90;2.40;;;;;;;;;;5065179;28;20659;-78
2021/03/28 08:39:50;;;;;;;7.33;2.00;;;;;;;;;;5063837;28;20624;-78
2021/03/28 08:42:30;;;;;;;6.73;2.20;;;;;;;;;;5062101;28;20188;-76
2021/03/28 08:45:15;;;;;;;9.47;2.40;;;;;;;;;;5054289;28;20290;-79
2021/03/28 08:47:47;;;;;;;6.53;1.60;;;;;;;;;;5072542;28;20515;-78
2021/03/28 08:50:13;;;;;;;8.47;2.27;;;;;;;;;;5073851;28;20224;-79
2021/03/28 08:52:47;;;;;;;5.90;2.03;;;;;;;;;;5071953;28;20249;-78
2021/03/28 08:55:32;;;;;;;6.03;1.93;;;;;;;;;;5052774;28;20201;-78
2021/03/28 08:58:33;;;;;;;8.23;2.23;;;;;;;;;;5072617;28;20178;-78
2021/03/28 09:00:59;;;;;;;6.23;2.13;;;;;;;;;;4984557;28;20265;-77
2021/03/28 09:03:25;;;;;;;4.97;2.43;;;;;;;;;;5060083;28;20207;-77
2021/03/28 09:05:52;;;;;;;8.97;2.03;;;;;;;;;;5073183;28;20202;-77
2021/03/28 09:08:24;;;;;;;5.17;1.77;;;;;;;;;;5072384;28;20174;-77
2021/03/28 09:11:09;;;;;;;6.27;1.97;;;;;;;;;;5075313;28;20213;-77
2021/03/28 09:13:43;;;;;;;5.93;2.57;;;;;;;;;;5075264;28;20180;-78
2021/03/28 09:16:18;;;;;;;7.97;2.00;;;;;;;;;;5057658;28;20202;-79
2021/03/28 09:18:47;;;;;;;11.53;2.23;;;;;;;;;;5072499;28;20190;-77
2021/03/28 09:21:26;;;;;;;8.87;2.20;;;;;;;;;;5055603;28;20717;-75
2021/03/28 09:23:51;;;;;;;8.17;2.27;;;;;;;;;;5072157;28;20175;-81
2021/03/28 09:26:27;;;;;;;12.03;2.40;;;;;;;;;;5061361;28;20203;-78
2021/03/28 09:29:11;;;;;;;6.97;1.90;;;;;;;;;;5057566;28;20272;-78
2021/03/28 09:31:52;;;;;;;6.43;1.97;;;;;;;;;;5052222;28;20180;-79
2021/03/28 09:34:37;;;;;;;6.87;1.83;;;;;;;;;;5065785;28;20225;-77
2021/03/28 09:37:08;;;;;;;10.30;2.37;;;;;;;;;;5069155;28;20192;-77
2021/03/28 09:39:34;;;;;;;11.27;2.23;;;;;;;;;;5048179;28;20218;-78
2021/03/28 09:42:06;;;;;;;8.33;2.10;;;;;;;;;;5063367;28;20180;-80
2021/03/28 09:44:50;;;;;;;6.77;2.10;;;;;;;;;;5063862;28;20226;-82
2021/03/28 09:47:16;;;;;;;11.87;2.13;;;;;;;;;;5071705;28;20267;-76
2021/03/28 09:49:42;;;;;;;8.67;2.57;;;;;;;;;;5071106;28;20389;-76
2021/03/28 09:52:14;;;;;;;9.33;2.20;;;;;;;;;;5071610;28;20176;-79
2021/03/28 09:55:12;;;;;;;8.63;2.10;;;;;;;;;;5071734;28;20547;-79
2021/03/28 09:57:57;;;;;;;6.63;2.00;;;;;;;;;;5071418;28;20701;-79
2021/03/28 10:00:28;;;;;;;8.50;2.07;;;;;;;;;;5071619;28;20196;-78
2021/03/28 10:03:00;;;;;;;6.90;2.03;;;;;;;;;;5071865;28;20193;-77
2021/03/28 10:05:32;;;;;;;8.47;2.03;;;;;;;;;;5054167;28;20208;-76
2021/03/28 10:08:08;;;;;;;5.07;1.80;;;;;;;;;;5071095;28;20181;-76
2021/03/28 10:10:50;;;;;;;4.70;1.60;;;;;;;;;;5070771;28;20200;-77
2021/03/28 10:13:19;;;;;;;5.93;2.00;;;;;;;;;;5072086;28;20177;-75
2021/03/28 10:16:04;;;;;;;5.60;1.70;;;;;;;;;;5070491;28;20189;-77
2021/03/28 10:18:30;;;;;;;4.87;1.83;;;;;;;;;;5072818;28;20174;-78
2021/03/28 10:21:05;;;;;;;5.57;1.73;;;;;;;;;;5073920;28;20315;-77
2021/03/28 10:23:31;;;;;;;6.87;1.80;;;;;;;;;;5062865;28;20247;-78
2021/03/28 10:25:57;;;;;;;6.73;2.03;;;;;;;;;;5053229;28;20686;-77
2021/03/28 10:28:37;;;;;;;6.63;2.10;;;;;;;;;;5083049;28;20673;-80
2021/03/28 10:31:22;;;;;;;7.93;2.40;;;;;;;;;;5055604;28;20287;-78
2021/03/28 10:33:51;;;;;;;7.80;2.70;;;;;;;;;;5075482;28;20185;-80
2021/03/28 10:36:33;;;;;;;8.33;2.80;;;;;;;;;;5075341;28;20224;-79
2021/03/28 10:39:17;;;;;;;8.13;2.37;;;;;;;;;;5074591;28;20182;-78
2021/03/28 10:41:50;;;;;;;9.00;2.97;;;;;;;;;;5074376;28;20181;-79
2021/03/28 10:44:19;;;;;;;4.20;2.30;;;;;;;;;;5068732;28;20225;-78
2021/03/28 10:47:03;;;;;;;8.43;2.90;;;;;;;;;;5061574;28;20193;-80
2021/03/28 10:49:48;;;;;;;4.00;2.30;;;;;;;;;;5054543;28;20220;-78
2021/03/28 10:52:17;;;;;;;7.37;2.37;;;;;;;;;;5054876;28;20257;-78
2021/03/28 10:55:06;;;;;;;5.63;2.33;;;;;;;;;;5050885;28;20260;-77
2021/03/28 10:57:50;;;;;;;5.97;2.10;;;;;;;;;;5040701;28;20186;-79
2021/03/28 11:00:27;;;;;;;7.77;2.23;;;;;;;;;;5052133;28;20528;-77
2021/03/28 11:03:05;;;;;;;5.70;1.93;;;;;;;;;;5051081;28;20608;-81
2021/03/28 11:05:45;;;;;;;4.83;1.80;;;;;;;;;;5056373;28;20198;-78
2021/03/28 11:08:17;;;;;;;4.60;1.57;;;;;;;;;;5074793;28;20189;-79
2021/03/28 11:11:02;;;;;;;6.03;1.90;;;;;;;;;;5065411;28;20231;-79
2021/03/28 11:13:47;;;;;;;7.40;1.57;;;;;;;;;;5070319;28;20666;-79
2021/03/28 11:16:27;;;;;;;5.80;1.60;;;;;;;;;;5067532;28;20292;-79
2021/03/28 11:19:11;;;;;;;7.30;1.70;;;;;;;;;;5059030;28;20551;-78
2021/03/28 11:21:39;;;;;;;2.47;1.23;;;;;;;;;;5068741;28;20178;-78
2021/03/28 11:24:08;;;;;;;4.77;1.73;;;;;;;;;;5057666;28;20642;-78
2021/03/28 11:26:49;;;;;;;5.07;1.37;;;;;;;;;;5075393;28;20705;-78
2021/03/28 11:29:15;;;;;;;3.60;1.30;;;;;;;;;;5071997;28;20208;-78
2021/03/28 11:32:03;;;;;;;2.77;1.23;;;;;;;;;;5072973;28;20181;-78
2021/03/28 11:34:34;;;;;;;5.63;1.50;;;;;;;;;;5055611;28;20592;-78
2021/03/28 11:37:04;;;;;;;6.60;1.37;;;;;;;;;;5055284;28;20181;-78
2021/03/28 11:39:30;;;;;;;4.93;1.27;;;;;;;;;;5071833;28;20205;-78
2021/03/28 11:42:03;;;;;;;4.40;1.30;;;;;;;;;;5071911;28;20720;-78
2021/03/28 11:44:33;;;;;;;3.33;1.17;;;;;;;;;;5074013;28;20211;-79
2021/03/28 11:47:02;;;;;;;3.37;1.20;;;;;;;;;;5064038;28;20182;-80
2021/03/28 11:49:32;;;;;;;2.20;1.00;;;;;;;;;;5068851;28;20229;-79
2021/03/28 11:52:13;;;;;;;5.40;1.20;;;;;;;;;;5057743;28;20227;-79
2021/03/28 11:54:39;;;;;;;2.77;1.00;;;;;;;;;;5072165;28;20208;-79
2021/03/28 11:57:05;;;;;;;4.83;1.20;;;;;;;;;;5054679;28;20178;-80
2021/03/28 11:59:37;;;;;;;5.30;1.50;;;;;;;;;;5071451;28;20213;-79
2021/03/28 12:02:12;;;;;;;4.03;1.47;;;;;;;;;;5056781;28;20189;-79
2021/03/28 12:04:38;;;;;;;6.47;1.43;;;;;;;;;;5074720;28;20688;-79
2021/03/28 12:07:23;;;;;;;3.70;1.40;;;;;;;;;;5064466;28;20669;-79
2021/03/28 12:10:02;;;;;;;5.13;1.30;;;;;;;;;;5063871;28;20267;-80
2021/03/28 12:12:31;;;;;;;6.90;1.57;;;;;;;;;;5065192;28;20269;-78
2021/03/28 12:14:57;;;;;;;8.23;1.70;;;;;;;;;;5061865;28;20579;-78
2021/03/28 12:17:24;;;;;;;4.90;1.50;;;;;;;;;;5050215;28;20182;-79
2021/03/28 12:19:59;;;;;;;4.27;1.30;;;;;;;;;;5041570;28;20189;-78
2021/03/28 12:22:29;;;;;;;4.63;1.47;;;;;;;;;;5051121;28;20186;-78
2021/03/28 12:24:59;;;;;;;4.63;1.30;;;;;;;;;;5067332;28;20201;-79
2021/03/28 12:27:30;;;;;;;4.83;1.40;;;;;;;;;;5056241;28;20193;-79
2021/03/28 12:29:56;;;;;;;4.50;1.50;;;;;;;;;;5056337;28;20208;-78
2021/03/28 12:32:42;;;;;;;4.30;1.20;;;;;;;;;;5072720;28;20669;-78
2021/03/28 12:35:16;;;;;;;7.37;1.37;;;;;;;;;;5073009;28;20194;-79
2021/03/28 12:37:42;;;;;;;5.43;1.63;;;;;;;;;;5073463;28;20265;-79
2021/03/28 12:40:21;;;;;;;6.50;1.70;;;;;;;;;;5072908;28;20225;-79
2021/03/28 12:42:47;;;;;;;4.87;1.63;;;;;;;;;;5056364;28;20177;-79
2021/03/28 12:45:13;;;;;;;5.17;1.70;;;;;;;;;;5072447;28;20266;-78
2021/03/28 12:47:50;;;;;;;7.13;1.47;;;;;;;;;;5074075;28;20200;-79
2021/03/28 12:50:17;;;;;;;6.20;1.73;;;;;;;;;;5072585;28;20284;-78
2021/03/28 12:52:47;;;;;;;4.97;1.30;;;;;;;;;;5072515;28;20173;-78
2021/03/28 12:55:17;;;;;;;5.80;1.77;;;;;;;;;;5047606;28;20762;-78
2021/03/28 12:57:43;;;;;;;5.17;1.40;;;;;;;;;;5053063;28;20174;-78
2021/03/28 13:00:31;;;;;;;5.40;1.70;;;;;;;;;;5071150;28;20192;-78
2021/03/28 13:02:57;;;;;;;4.37;1.60;;;;;;;;;;5068993;28;20196;-78
2021/03/28 13:05:28;;;;;;;7.90;1.90;;;;;;;;;;5060217;28;20668;-78
2021/03/28 13:08:06;;;;;;;4.87;1.70;;;;;;;;;;5053312;28;20209;-78
2021/03/28 13:10:34;;;;;;;8.20;1.60;;;;;;;;;;5067836;28;20208;-78
2021/03/28 13:13:04;;;;;;;6.80;1.60;;;;;;;;;;5068673;28;20725;-78
2021/03/28 13:15:48;;;;;;;7.53;1.80;;;;;;;;;;5055251;28;20198;-78
2021/03/28 13:18:35;;;;;;;6.33;1.80;;;;;;;;;;5061312;28;20631;-80
2021/03/28 13:21:11;;;;;;;4.40;1.50;;;;;;;;;;5050224;28;20268;-80
2021/03/28 13:23:38;;;;;;;5.13;1.47;;;;;;;;;;5055474;28;20593;-80
2021/03/28 13:26:08;;;;;;;7.20;2.10;;;;;;;;;;5049823;28;20194;-79
2021/03/28 13:28:34;;;;;;;4.40;1.23;;;;;;;;;;5039697;28;20199;-77
2021/03/28 13:31:14;;;;;;;5.03;1.67;;;;;;;;;;5068066;28;20209;-77
2021/03/28 13:33:40;;;;;;;3.37;1.07;;;;;;;;;;5055303;28;20743;-77
2021/03/28 13:36:26;;;;;;;4.43;1.60;;;;;;;;;;5063479;28;20202;-77
2021/03/28 13:39:12;;;;;;;5.33;1.50;;;;;;;;;;5071413;28;20632;-79
2021/03/28 13:41:42;;;;;;;5.47;1.53;;;;;;;;;;5065159;28;20182;-78
2021/03/28 13:44:17;;;;;;;5.63;1.63;;;;;;;;;;5052165;28;20183;-77
2021/03/28 13:46:47;;;;;;;5.63;1.23;;;;;;;;;;5052193;28;20623;-78
2021/03/28 13:49:22;;;;;;;4.77;1.23;;;;;;;;;;5034434;28;20212;-80
2021/03/28 13:51:57;;;;;;;6.60;1.50;;;;;;;;;;5034514;28;20178;-77
2021/03/28 13:54:23;;;;;;;7.03;1.60;;;;;;;;;;5050861;28;20243;-77
2021/03/28 13:56:49;;;;;;;5.07;1.60;;;;;;;;;;5051336;28;20174;-78
2021/03/28 13:59:20;;;;;;;5.57;1.40;;;;;;;;;;5051216;28;20205;-79
2021/03/28 14:02:24;;;;;;;3.67;1.50;;;;;;;;;;5052030;28;20177;-79
2021/03/28 14:05:07;;;;;;;5.23;1.30;;;;;;;;;;4956365;28;20211;-78
2021/03/28 14:07:35;;;;;;;8.67;1.87;;;;;;;;;;4940501;28;20180;-78
2021/03/28 14:10:04;;;;;;;6.20;1.30;;;;;;;;;;5021372;28;20209;-77
2021/03/28 14:12:46;;;;;;;8.83;1.40;;;;;;;;;;5062803;28;20210;-77
2021/03/28 14:15:21;;;;;;;7.23;1.43;;;;;;;;;;5035704;28;20201;-78
2021/03/28 14:18:04;;;;;;;5.60;1.20;;;;;;;;;;5053371;28;20227;-77
2021/03/28 14:20:34;;;;;;;10.63;1.83;;;;;;;;;;5051003;28;20197;-78
2021/03/28 14:23:10;;;;;;;10.00;1.60;;;;;;;;;;5051501;28;20214;-77
2021/03/28 14:25:41;;;;;;;5.93;1.30;;;;;;;;;;5052479;28;20190;-77
2021/03/28 14:28:20;;;;;;;4.67;1.60;;;;;;;;;;5051813;28;20192;-78
2021/03/28 14:30:46;;;;;;;4.30;1.20;;;;;;;;;;5069701;28;20211;-78
2021/03/28 14:33:21;;;;;;;6.73;1.70;;;;;;;;;;5071426;28;20174;-78
2021/03/28 14:36:06;;;;;;;3.00;1.30;;;;;;;;;;5054569;28;20193;-78
2021/03/28 14:38:49;;;;;;;5.63;1.43;;;;;;;;;;5072541;28;20209;-78
2021/03/28 14:41:25;;;;;;;7.50;1.57;;;;;;;;;;5057871;28;20180;-79
2021/03/28 14:44:06;;;;;;;5.60;1.30;;;;;;;;;;5072393;28;20895;-77
2021/03/28 14:46:33;;;;;;;4.37;1.50;;;;;;;;;;5056917;28;20213;-78
2021/03/28 14:49:25;;;;;;;5.67;1.40;;;;;;;;;;5057433;28;20232;-78
2021/03/28 14:52:00;;;;;;;3.63;1.47;;;;;;;;;;5054077;28;20228;-79
2021/03/28 14:54:37;;;;;;;6.93;1.90;;;;;;;;;;5055982;28;20249;-79
2021/03/28 14:57:06;;;;;;;5.70;1.80;;;;;;;;;;5054928;28;20162;-79
2021/03/28 14:59:35;;;;;;;4.17;1.33;;;;;;;;;;5054349;28;20225;-78
2021/03/28 15:02:20;;;;;;;6.63;1.90;;;;;;;;;;5073420;23;20295;-77
2021/03/28 15:04:59;;;;;;;7.40;1.40;;;;;;;;;;5056195;28;20177;-76
2021/03/28 15:07:33;;;;;;;5.17;1.43;;;;;;;;;;5064681;28;20200;-75
2021/03/28 15:10:18;;;;;;;4.50;1.50;;;;;;;;;;5046554;28;20208;-72
2021/03/28 15:12:46;;;;;;;4.40;1.33;;;;;;;;;;5078729;28;20204;-78
2021/03/28 15:15:16;;;;;;;8.67;1.67;;;;;;;;;;5076503;28;20185;-78
2021/03/28 15:17:43;;;;;;;7.33;1.60;;;;;;;;;;5063124;28;20535;-75
2021/03/28 15:20:16;;;;;;;2.50;1.07;;;;;;;;;;5075899;28;20189;-78
2021/03/28 15:22:46;;;;;;;7.03;1.43;;;;;;;;;;5076503;28;20196;-77
2021/03/28 15:25:16;;;;;;;3.77;1.40;;;;;;;;;;5058449;28;20234;-77